createdAt,value
2018-11-10T00:02:17.735Z,97620.22
2018-11-10T00:04:47.657Z,97621.14
2018-11-10T00:07:17.551Z,97611.06
2018-11-10T00:09:47.644Z,97221.34
2018-11-10T00:12:17.484Z,97607.13
2018-11-10T00:14:47.489Z,97610.27
2018-11-10T00:17:17.346Z,97601.93
2018-11-10T00:19:47.204Z,97604.27
2018-11-10T00:22:17.095Z,97595.09
2018-11-10T00:24:47.075Z,97601.33
2018-11-10T00:27:16.863Z,97603.16
2018-11-10T00:29:46.765Z,97602.27
2018-11-10T00:32:16.592Z,97595.82
2018-11-10T00:34:46.638Z,97601.92
2018-11-10T00:37:16.277Z,97602.84
2018-11-10T00:39:46.200Z,97597.19
2018-11-10T00:42:16.064Z,97595.82
2018-11-10T00:44:46.081Z,97594.85
2018-11-10T00:47:15.961Z,97599.70
2018-11-10T00:49:45.872Z,97591.55
2018-11-10T00:52:15.777Z,97594.20
2018-11-10T00:54:45.669Z,97592.59
2018-11-10T00:57:15.452Z,97588.69
2018-11-10T00:59:45.315Z,97592.20
2018-11-10T01:02:15.101Z,97601.38
2018-11-10T01:04:45.086Z,97597.84
2018-11-10T01:07:14.984Z,97590.31
2018-11-10T01:09:44.813Z,97596.36
2018-11-10T01:12:14.635Z,97601.78
2018-11-10T01:14:44.549Z,97590.51
2018-11-10T01:17:14.457Z,97605.45
2018-11-10T01:19:44.336Z,97596.34
2018-11-10T01:22:14.175Z,97592.02
2018-11-10T01:24:44.060Z,97583.80
2018-11-10T01:27:13.937Z,97582.55
2018-11-10T01:29:43.903Z,97578.95
2018-11-10T01:32:13.745Z,97575.88
2018-11-10T01:34:43.501Z,97576.78
2018-11-10T01:37:13.403Z,97576.78
2018-11-10T01:39:43.255Z,97579.02
2018-11-10T01:42:13.051Z,96968.40
2018-11-10T01:44:42.924Z,97570.42
2018-11-10T01:47:12.730Z,97569.91
2018-11-10T01:49:42.521Z,97565.12
2018-11-10T01:52:12.260Z,97565.17
2018-11-10T01:54:42.064Z,97564.66
2018-11-10T01:57:11.781Z,97563.92
2018-11-10T01:59:41.646Z,97559.27
2018-11-10T02:02:11.484Z,97557.05
2018-11-10T02:04:41.314Z,97552.31
2018-11-10T02:07:11.174Z,97560.58
2018-11-10T02:09:40.962Z,97560.52
2018-11-10T02:12:10.795Z,97558.02
2018-11-10T02:14:40.692Z,97557.44
2018-11-10T02:17:10.479Z,97555.59
2018-11-10T02:19:40.310Z,97548.18
2018-11-10T02:22:10.150Z,97552.57
2018-11-10T02:24:40.026Z,97548.58
2018-11-10T02:27:14.001Z,97538.15
2018-11-10T02:29:43.921Z,97529.84
2018-11-10T02:32:13.785Z,97534.69
2018-11-10T02:34:43.736Z,97528.08
2018-11-10T02:37:13.476Z,97524.26
2018-11-10T02:39:43.421Z,97521.63
2018-11-10T02:42:13.264Z,97521.70
2018-11-10T02:44:43.172Z,97515.02
2018-11-10T02:47:13.014Z,97517.59
2018-11-10T02:49:42.836Z,97519.73
2018-11-10T02:52:12.590Z,97513.31
2018-11-10T02:54:42.425Z,97511.28
2018-11-10T02:57:12.317Z,97511.80
2018-11-10T02:59:42.153Z,97510.03
2018-11-10T03:02:11.959Z,97506.09
2018-11-10T03:04:41.755Z,97510.83
2018-11-10T03:07:11.619Z,97503.41
2018-11-10T03:09:41.497Z,97454.13
2018-11-10T03:12:11.295Z,97509.37
2018-11-10T03:14:41.145Z,97512.97
2018-11-10T03:17:10.989Z,97513.45
2018-11-10T03:19:40.948Z,97508.72
2018-11-10T03:22:10.801Z,97512.97
2018-11-10T03:24:40.641Z,97511.28
2018-11-10T03:27:10.383Z,97510.94
2018-11-10T03:29:40.235Z,97513.64
2018-11-10T03:32:10.088Z,97518.01
2018-11-10T03:34:40.059Z,97510.56
2018-11-10T03:37:09.900Z,97507.01
2018-11-10T03:39:39.747Z,97503.59
2018-11-10T03:42:09.581Z,97503.27
2018-11-10T03:44:39.452Z,97509.37
2018-11-10T03:47:09.311Z,97496.77
2018-11-10T03:49:39.147Z,97494.55
2018-11-10T03:52:08.989Z,97488.45
2018-11-10T03:54:38.820Z,97494.03
2018-11-10T03:57:08.618Z,97396.38
2018-11-10T03:59:38.534Z,97489.78
2018-11-10T04:02:08.327Z,97485.45
2018-11-10T04:04:38.235Z,97491.53
2018-11-10T04:07:08.093Z,97492.84
2018-11-10T04:09:37.963Z,97493.30
2018-11-10T04:12:07.968Z,97494.15
2018-11-10T04:14:37.885Z,97490.50
2018-11-10T04:17:07.779Z,97492.27
2018-11-10T04:19:37.578Z,97487.48
2018-11-10T04:22:07.568Z,97488.39
2018-11-10T04:24:37.502Z,97484.40
2018-11-10T04:27:07.401Z,97484.77
2018-11-10T04:29:37.325Z,97479.53
2018-11-10T04:32:07.177Z,97382.20
2018-11-10T04:34:36.984Z,97474.57
2018-11-10T04:37:07.042Z,97476.59
2018-11-10T04:39:36.795Z,97480.92
2018-11-10T04:42:06.693Z,97477.78
2018-11-10T04:44:36.524Z,97481.50
2018-11-10T04:47:06.575Z,97479.80
2018-11-10T04:49:36.409Z,97487.22
2018-11-10T04:52:06.993Z,97478.55
2018-11-10T04:54:36.807Z,97480.78
2018-11-10T04:57:06.898Z,97480.38
2018-11-10T04:59:36.864Z,97484.66
2018-11-10T05:02:06.741Z,97481.17
2018-11-10T05:04:36.563Z,97475.88
2018-11-10T05:07:06.485Z,97480.61
2018-11-10T05:09:36.241Z,97477.96
2018-11-10T05:12:06.223Z,97480.92
2018-11-10T05:14:36.091Z,97483.94
2018-11-10T05:17:06.268Z,97478.22
2018-11-10T05:19:36.081Z,97483.34
2018-11-10T05:22:05.935Z,97488.53
2018-11-10T05:24:35.858Z,97482.89
2018-11-10T05:27:06.022Z,97480.27
2018-11-10T05:29:35.751Z,97475.02
2018-11-10T05:32:05.711Z,97476.00
2018-11-10T05:34:35.559Z,97478.62
2018-11-10T05:37:05.555Z,97476.13
2018-11-10T05:39:35.448Z,97480.84
2018-11-10T05:42:05.391Z,97477.45
2018-11-10T05:44:35.261Z,97477.45
2018-11-10T05:47:05.216Z,97477.05
2018-11-10T05:49:35.065Z,97476.67
2018-11-10T05:52:05.294Z,97479.73
2018-11-10T05:54:35.154Z,97478.89
2018-11-10T05:57:05.099Z,97477.98
2018-11-10T05:59:34.883Z,97484.14
2018-11-10T06:02:04.777Z,97484.54
2018-11-10T06:04:34.644Z,97483.23
2018-11-10T06:07:04.459Z,97486.30
2018-11-10T06:09:34.330Z,97477.13
2018-11-10T06:12:04.103Z,97483.34
2018-11-10T06:14:34.002Z,97477.19
2018-11-10T06:17:03.941Z,97477.38
2018-11-10T06:19:33.749Z,97475.94
2018-11-10T06:22:03.543Z,97484.20
2018-11-10T06:24:33.351Z,97485.00
2018-11-10T06:27:03.191Z,97486.28
2018-11-10T06:29:33.165Z,97484.06
2018-11-10T06:32:03.059Z,97484.52
2018-11-10T06:34:32.929Z,97490.16
2018-11-10T06:37:02.842Z,97478.16
2018-11-10T06:39:32.708Z,97476.73
2018-11-10T06:42:03.683Z,97480.53
2018-11-10T06:44:33.535Z,97480.13
2018-11-10T06:47:03.487Z,97482.23
2018-11-10T06:49:33.324Z,97486.23
2018-11-10T06:52:03.199Z,97485.89
2018-11-10T06:54:33.087Z,97486.03
2018-11-10T06:57:02.968Z,97483.47
2018-11-10T06:59:32.827Z,97483.47
2018-11-10T07:02:02.705Z,97483.47
2018-11-10T07:04:32.739Z,97483.47
2018-11-10T07:07:02.786Z,97486.97
2018-11-10T07:09:32.757Z,97485.57
2018-11-10T07:12:02.573Z,97482.75
2018-11-10T07:14:32.467Z,97487.48
2018-11-10T07:17:02.397Z,97488.31
2018-11-10T07:19:32.310Z,97483.92
2018-11-10T07:22:02.122Z,97485.69
2018-11-10T07:24:32.053Z,97482.09
2018-11-10T07:27:01.909Z,97494.23
2018-11-10T07:29:31.784Z,97487.08
2018-11-10T07:32:01.917Z,97489.56
2018-11-10T07:34:32.093Z,97485.94
2018-11-10T07:37:01.952Z,97486.92
2018-11-10T07:39:31.768Z,97495.05
2018-11-10T07:42:01.611Z,97496.67
2018-11-10T07:44:31.598Z,97499.17
2018-11-10T07:47:01.472Z,97497.00
2018-11-10T07:49:31.526Z,97497.40
2018-11-10T07:52:01.179Z,97390.20
2018-11-10T07:54:31.129Z,97493.16
2018-11-10T07:57:01.069Z,97488.77
2018-11-10T07:59:31.007Z,97490.94
2018-11-10T08:02:00.830Z,97487.73
2018-11-10T08:04:30.699Z,97481.81
2018-11-10T08:07:00.491Z,97489.72
2018-11-10T08:09:30.410Z,97488.77
2018-11-10T08:12:00.254Z,97487.27
2018-11-10T08:14:30.061Z,97487.12
2018-11-10T08:16:59.868Z,97491.88
2018-11-10T08:19:29.637Z,97488.12
2018-11-10T08:21:59.383Z,97489.20
2018-11-10T08:24:29.219Z,97486.00
2018-11-10T08:26:59.090Z,97496.73
2018-11-10T08:29:28.885Z,97496.19
2018-11-10T08:31:58.811Z,97492.41
2018-11-10T08:34:28.672Z,97489.95
2018-11-10T08:36:58.537Z,97487.03
2018-11-10T08:39:28.504Z,97488.34
2018-11-10T08:41:58.397Z,97493.05
2018-11-10T08:44:28.289Z,97486.93
2018-11-10T08:46:58.107Z,97482.52
2018-11-10T08:49:28.027Z,97476.61
2018-11-10T08:51:57.975Z,97480.16
2018-11-10T08:54:27.804Z,97479.81
2018-11-10T08:56:58.619Z,97467.13
2018-11-10T08:59:28.543Z,97472.39
2018-11-10T09:01:58.455Z,97477.22
2018-11-10T09:04:28.389Z,97473.24
2018-11-10T09:06:58.617Z,97477.69
2018-11-10T09:09:28.565Z,97481.16
2018-11-10T09:11:58.413Z,97477.69
2018-11-10T09:14:28.352Z,97482.69
2018-11-10T09:16:58.180Z,97480.91
2018-11-10T09:19:28.063Z,97489.65
2018-11-10T09:21:57.924Z,97482.84
2018-11-10T09:24:27.947Z,97483.31
2018-11-10T09:26:57.984Z,97350.33
2018-11-10T09:29:27.842Z,97482.38
2018-11-10T09:31:57.793Z,97486.10
2018-11-10T09:34:27.742Z,97483.14
2018-11-10T09:36:57.674Z,97481.01
2018-11-10T09:39:27.698Z,97481.30
2018-11-10T09:41:57.691Z,97485.41
2018-11-10T09:44:27.556Z,97484.44
2018-11-10T09:46:57.461Z,97478.20
2018-11-10T09:49:27.336Z,97474.11
2018-11-10T09:51:57.214Z,97473.22
2018-11-10T09:54:27.093Z,97472.41
2018-11-10T09:56:57.150Z,97469.84
2018-11-10T09:59:27.197Z,97467.84
2018-11-10T10:01:57.304Z,97454.02
2018-11-10T10:04:26.970Z,97456.33
2018-11-10T10:07:14.078Z,97455.47
2018-11-10T10:09:43.945Z,97449.12
2018-11-10T10:12:13.841Z,97447.17
2018-11-10T10:14:43.746Z,97445.19
2018-11-10T10:17:13.667Z,97438.42
2018-11-10T10:19:43.646Z,97439.36
2018-11-10T10:22:13.529Z,97434.95
2018-11-10T10:24:43.400Z,97433.00
2018-11-10T10:27:14.018Z,97437.27
2018-11-10T10:29:47.363Z,97432.78
2018-11-10T10:32:19.108Z,97430.30
2018-11-10T10:34:53.511Z,97372.58
2018-11-10T10:37:24.312Z,97426.28
2018-11-10T10:39:54.591Z,97425.32
2018-11-10T10:42:24.496Z,97426.95
2018-11-10T10:44:54.476Z,97426.00
2018-11-10T10:47:24.730Z,97420.84
2018-11-10T10:49:54.632Z,97424.82
2018-11-10T10:52:24.541Z,97418.88
2018-11-10T10:54:54.442Z,97413.48
2018-11-10T10:57:24.273Z,97405.12
2018-11-10T10:59:54.137Z,97401.64
2018-11-10T11:02:29.153Z,97399.08
2018-11-10T11:05:04.021Z,97401.25
2018-11-10T11:07:33.893Z,97395.49
2018-11-10T11:10:03.760Z,97393.80
2018-11-10T11:12:33.620Z,97392.97
2018-11-10T11:15:03.633Z,97391.97
2018-11-10T11:17:33.510Z,97386.25
2018-11-10T11:20:03.501Z,97379.55
2018-11-10T11:22:33.462Z,97379.06
2018-11-10T11:25:03.537Z,97388.20
2018-11-10T11:27:33.521Z,97378.60
2018-11-10T11:30:03.809Z,97380.25
2018-11-10T11:32:34.270Z,97375.77
2018-11-10T11:35:04.219Z,97380.91
2018-11-10T11:37:34.113Z,97368.69
2018-11-10T11:40:04.024Z,97369.93
2018-11-10T11:42:33.890Z,97368.47
2018-11-10T11:45:03.803Z,97373.38
2018-11-10T11:47:33.695Z,97367.92
2018-11-10T11:50:03.781Z,97369.70
2018-11-10T11:52:33.800Z,97366.06
2018-11-10T11:55:03.672Z,97371.87
2018-11-10T11:57:33.576Z,97367.34
2018-11-10T12:00:03.441Z,97366.88
2018-11-10T12:02:33.361Z,97361.26
2018-11-10T12:05:03.343Z,97362.57
2018-11-10T12:07:33.154Z,97366.88
2018-11-10T12:10:03.189Z,97357.34
2018-11-10T12:12:33.121Z,97354.83
2018-11-10T12:15:02.984Z,97354.83
2018-11-10T12:17:32.932Z,97353.75
2018-11-10T12:20:02.853Z,97356.57
2018-11-10T12:22:32.783Z,97354.02
2018-11-10T12:25:02.711Z,97328.89
2018-11-10T12:27:32.574Z,97346.22
2018-11-10T12:30:02.452Z,97344.44
2018-11-10T12:32:32.382Z,97346.41
2018-11-10T12:35:02.324Z,97342.25
2018-11-10T12:37:32.368Z,97344.61
2018-11-10T12:40:02.380Z,97347.24
2018-11-10T12:42:32.756Z,97343.52
2018-11-10T12:45:03.388Z,97341.69
2018-11-10T12:47:33.361Z,97346.41
2018-11-10T12:50:03.396Z,97339.41
2018-11-10T12:52:33.338Z,97340.95
2018-11-10T12:55:03.404Z,97347.05
2018-11-10T12:57:33.285Z,97339.11
2018-11-10T13:00:03.243Z,97345.70
2018-11-10T13:02:33.200Z,97337.36
2018-11-10T13:05:03.076Z,97337.88
2018-11-10T13:07:34.699Z,97337.28
2018-11-10T13:10:07.236Z,97337.16
2018-11-10T13:12:38.979Z,97333.41
2018-11-10T13:15:10.892Z,97328.65
2018-11-10T13:17:40.999Z,97328.33
2018-11-10T13:20:14.737Z,97330.77
2018-11-10T13:22:46.677Z,97333.85
2018-11-10T13:25:20.964Z,97330.88
2018-11-10T13:27:50.893Z,97323.26
2018-11-10T13:30:20.873Z,97322.11
2018-11-10T13:32:50.939Z,97315.75
2018-11-10T13:35:20.919Z,97317.59
2018-11-10T13:37:50.768Z,97315.83
2018-11-10T13:40:20.724Z,97313.80
2018-11-10T13:42:50.630Z,97315.02
2018-11-10T13:45:20.516Z,97312.47
2018-11-10T13:47:50.377Z,97310.18
2018-11-10T13:50:20.324Z,97312.89
2018-11-10T13:52:50.642Z,97306.42
2018-11-10T13:55:20.077Z,97305.02
2018-11-10T13:57:49.946Z,97298.77
2018-11-10T14:00:20.031Z,97300.28
2018-11-10T14:02:49.868Z,97296.44
2018-11-10T14:05:21.125Z,97303.30
2018-11-10T14:07:51.048Z,97298.84
2018-11-10T14:10:20.873Z,97299.58
2018-11-10T14:12:52.664Z,97295.75
2018-11-10T14:15:23.582Z,97302.11
2018-11-10T14:17:54.028Z,97289.31
2018-11-10T14:20:24.715Z,97301.39
2018-11-10T14:22:55.524Z,97295.08
2018-11-10T14:25:25.748Z,97292.02
2018-11-10T14:27:55.568Z,97298.13
2018-11-10T14:30:26.383Z,97294.89
2018-11-10T14:32:56.727Z,97295.00
2018-11-10T14:35:26.523Z,97298.69
2018-11-10T14:37:56.275Z,97292.98
2018-11-10T14:40:26.083Z,97291.91
2018-11-10T14:42:56.001Z,97298.23
2018-11-10T14:45:25.852Z,97296.74
2018-11-10T14:47:55.730Z,97293.61
2018-11-10T14:50:25.459Z,97299.89
2018-11-10T14:52:55.423Z,97296.26
2018-11-10T14:55:25.144Z,97301.44
2018-11-10T14:57:54.991Z,97306.23
2018-11-10T15:00:27.963Z,97305.96
2018-11-10T15:02:57.834Z,97310.16
2018-11-10T15:05:27.812Z,97311.08
2018-11-10T15:07:57.687Z,97309.44
2018-11-10T15:10:27.535Z,97308.30
2018-11-10T15:12:57.378Z,97311.09
2018-11-10T15:15:27.240Z,97315.33
2018-11-10T15:17:57.206Z,97312.02
2018-11-10T15:20:27.205Z,97314.25
2018-11-10T15:22:57.044Z,97310.55
2018-11-10T15:25:27.095Z,97315.05
2018-11-10T15:27:56.872Z,97313.09
2018-11-10T15:30:26.719Z,97310.10
2018-11-10T15:32:56.640Z,97313.02
2018-11-10T15:35:26.515Z,97316.38
2018-11-10T15:37:56.353Z,97318.64
2018-11-10T15:40:26.222Z,97309.74
2018-11-10T15:42:56.138Z,97312.48
2018-11-10T15:45:42.621Z,97315.66
2018-11-10T15:48:13.555Z,97323.16
2018-11-10T15:50:43.496Z,97319.66
2018-11-10T15:53:13.712Z,97322.86
2018-11-10T15:55:43.701Z,97314.92
2018-11-10T15:58:13.618Z,97315.98
2018-11-10T16:00:43.537Z,97316.19
2018-11-10T16:03:13.454Z,97317.19
2018-11-10T16:05:43.480Z,97317.38
2018-11-10T16:08:14.007Z,97322.42
2018-11-10T16:10:44.137Z,97319.55
2018-11-10T16:13:14.132Z,97325.05
2018-11-10T16:15:44.162Z,97319.26
2018-11-10T16:18:14.106Z,97138.37
2018-11-10T16:20:44.178Z,97320.92
2018-11-10T16:23:14.046Z,97327.92
2018-11-10T16:25:43.895Z,97311.83
2018-11-10T16:28:13.812Z,97323.94
2018-11-10T16:30:43.748Z,97317.66
2018-11-10T16:33:13.592Z,97318.76
2018-11-10T16:35:43.433Z,97318.47
2018-11-10T16:38:24.573Z,97324.31
2018-11-10T16:40:56.174Z,97319.08
2018-11-10T16:43:30.047Z,97319.51
2018-11-10T16:46:08.159Z,97318.27
2018-11-10T16:48:51.107Z,97323.11
2018-11-10T16:51:43.021Z,97330.23
2018-11-10T16:54:26.368Z,97335.06
2018-11-10T16:57:09.734Z,97334.27
2018-11-10T16:59:49.439Z,97343.50
2018-11-10T17:02:29.405Z,97340.48
2018-11-10T17:05:09.438Z,97349.08
2018-11-10T17:07:47.962Z,97339.30
2018-11-10T17:10:30.941Z,97344.58
2018-11-10T17:13:09.381Z,97345.91
2018-11-10T17:15:55.346Z,97346.81
2018-11-10T17:18:31.512Z,97343.30
2018-11-10T17:21:05.884Z,97347.20
2018-11-10T17:23:36.784Z,97348.28
2018-11-10T17:26:07.320Z,97348.80
2018-11-10T17:28:38.148Z,97345.05
2018-11-10T17:31:08.464Z,97349.53
2018-11-10T17:33:38.755Z,97346.53
2018-11-10T17:36:08.772Z,97353.18
2018-11-10T17:38:38.457Z,97350.72
2018-11-10T17:41:08.250Z,97351.34
2018-11-10T17:43:38.335Z,97343.23
2018-11-10T17:46:08.639Z,97345.55
2018-11-10T17:48:41.324Z,97349.53
2018-11-10T17:51:11.492Z,97349.23
2018-11-10T17:53:41.550Z,97353.17
2018-11-10T17:56:11.342Z,97351.70
2018-11-10T17:58:41.425Z,97352.27
2018-11-10T18:01:11.303Z,97353.86
2018-11-10T18:03:41.287Z,97351.06
2018-11-10T18:06:11.592Z,97359.76
2018-11-10T18:08:41.725Z,97352.24
2018-11-10T18:11:11.549Z,97352.56
2018-11-10T18:13:41.567Z,97355.38
2018-11-10T18:16:11.493Z,97353.72
2018-11-10T18:18:41.440Z,97357.70
2018-11-10T18:21:11.188Z,97355.98
2018-11-10T18:23:41.023Z,97359.56
2018-11-10T18:26:10.943Z,97355.80
2018-11-10T18:28:40.774Z,97354.64
2018-11-10T18:31:10.646Z,97163.44
2018-11-10T18:33:40.699Z,97368.50
2018-11-10T18:36:10.578Z,97363.44
2018-11-10T18:38:40.452Z,97363.48
2018-11-10T18:41:10.203Z,97367.39
2018-11-10T18:43:40.181Z,97370.86
2018-11-10T18:46:10.003Z,97371.41
2018-11-10T18:48:40.251Z,97374.08
2018-11-10T18:51:10.712Z,97369.80
2018-11-10T18:53:40.622Z,97370.36
2018-11-10T18:56:10.583Z,97365.23
2018-11-10T18:58:40.484Z,97367.03
2018-11-10T19:01:10.365Z,97370.19
2018-11-10T19:03:40.368Z,97368.03
2018-11-10T19:06:10.357Z,97368.28
2018-11-10T19:08:40.251Z,97177.84
2018-11-10T19:11:10.143Z,97370.26
2018-11-10T19:13:40.034Z,97372.70
2018-11-10T19:16:09.973Z,97370.73
2018-11-10T19:18:39.989Z,97367.98
2018-11-10T19:21:33.313Z,97375.97
2018-11-10T19:24:16.798Z,97377.69
2018-11-10T19:27:10.202Z,97377.78
2018-11-10T19:29:51.163Z,97381.61
2018-11-10T19:32:33.355Z,97386.33
2018-11-10T19:35:16.691Z,97381.47
2018-11-10T19:37:49.441Z,97377.73
2018-11-10T19:40:20.166Z,97378.73
2018-11-10T19:42:52.342Z,97380.12
2018-11-10T19:45:24.059Z,97379.77
2018-11-10T19:47:56.052Z,97391.69
2018-11-10T19:50:26.054Z,97384.39
2018-11-10T19:52:55.874Z,97387.98
2018-11-10T19:55:25.706Z,97385.88
2018-11-10T19:57:56.723Z,97389.02
2018-11-10T20:00:28.057Z,97383.12
2018-11-10T20:02:57.775Z,97386.22
2018-11-10T20:05:29.796Z,97379.25
2018-11-10T20:08:00.559Z,97377.21
2018-11-10T20:10:32.944Z,97381.30
2018-11-10T20:13:07.359Z,97381.66
2018-11-10T20:15:37.623Z,97382.92
2018-11-10T20:18:10.366Z,97407.70
2018-11-10T20:20:42.370Z,97389.48
2018-11-10T20:23:16.245Z,97387.48
2018-11-10T20:25:46.464Z,97385.03
2018-11-10T20:28:17.562Z,97385.53
2018-11-10T20:30:51.352Z,97377.34
2018-11-10T20:33:24.358Z,97384.84
2018-11-10T20:35:55.779Z,97381.46
2018-11-10T20:38:28.691Z,97380.20
2018-11-10T20:41:00.559Z,97386.80
2018-11-10T20:43:31.211Z,97390.67
2018-11-10T20:46:02.128Z,97383.38
2018-11-10T20:48:32.881Z,97382.40
2018-11-10T20:51:04.187Z,97381.25
2018-11-10T20:53:35.283Z,97226.37
2018-11-10T20:56:06.580Z,97375.75
2018-11-10T20:58:38.098Z,97380.44
2018-11-10T21:01:08.608Z,97373.59
2018-11-10T21:03:39.321Z,97370.46
2018-11-10T21:06:10.405Z,97375.30
2018-11-10T21:08:41.108Z,97366.26
2018-11-10T21:11:16.739Z,97366.38
2018-11-10T21:13:47.899Z,97368.17
2018-11-10T21:16:18.498Z,97364.30
2018-11-10T21:18:48.789Z,97373.13
2018-11-10T21:21:19.673Z,97367.98
2018-11-10T21:23:51.530Z,97367.50
2018-11-10T21:26:22.222Z,97366.65
2018-11-10T21:28:53.128Z,97368.77
2018-11-10T21:31:24.551Z,97372.67
2018-11-10T21:33:55.996Z,97366.61
2018-11-10T21:36:26.073Z,97365.72
2018-11-10T21:38:56.478Z,97367.84
2018-11-10T21:41:27.275Z,97374.31
2018-11-10T21:43:57.944Z,97369.52
2018-11-10T21:46:28.284Z,97374.72
2018-11-10T21:48:58.627Z,97370.07
2018-11-10T21:51:29.342Z,97374.05
2018-11-10T21:53:59.657Z,97374.09
2018-11-10T21:56:29.719Z,97371.08
2018-11-10T21:59:00.084Z,97372.05
2018-11-10T22:01:31.443Z,97370.00
2018-11-10T22:04:02.403Z,97373.05
2018-11-10T22:06:33.114Z,97367.42
2018-11-10T22:09:03.377Z,97374.45
2018-11-10T22:11:34.907Z,97371.00
2018-11-10T22:14:05.636Z,97378.95
2018-11-10T22:16:36.366Z,97375.48
2018-11-10T22:19:06.570Z,97368.50
2018-11-10T22:21:37.351Z,97371.07
2018-11-10T22:24:08.267Z,97368.09
2018-11-10T22:26:39.366Z,97370.36
2018-11-10T22:29:10.115Z,97371.69
2018-11-10T22:31:41.004Z,97361.65
2018-11-10T22:34:12.403Z,97365.11
2018-11-10T22:36:43.321Z,97368.61
2018-11-10T22:39:13.533Z,97375.53
2018-11-10T22:41:43.930Z,97380.36
2018-11-10T22:44:15.146Z,97377.83
2018-11-10T22:46:46.042Z,97378.30
2018-11-10T22:49:17.638Z,97377.03
2018-11-10T22:51:48.908Z,97383.12
2018-11-10T22:54:18.906Z,97376.18
2018-11-10T22:56:49.629Z,97367.92
2018-11-10T22:59:19.913Z,97374.88
2018-11-10T23:01:49.931Z,97370.22
2018-11-10T23:04:20.334Z,97377.14
2018-11-10T23:06:51.956Z,97374.43
2018-11-10T23:09:23.455Z,96949.57
2018-11-10T23:11:54.659Z,97363.81
2018-11-10T23:14:25.362Z,97373.30
2018-11-10T23:16:57.404Z,97375.11
2018-11-10T23:19:28.353Z,97368.25
2018-11-10T23:21:59.248Z,97370.89
2018-11-10T23:24:30.027Z,97367.69
2018-11-10T23:27:00.203Z,97366.32
2018-11-10T23:29:30.268Z,97371.33
2018-11-10T23:32:07.943Z,97363.94
2018-11-10T23:34:42.427Z,97367.11
2018-11-10T23:37:12.956Z,97364.00
2018-11-10T23:39:43.047Z,97354.45
2018-11-10T23:42:14.755Z,97357.47
2018-11-10T23:44:46.315Z,97357.50
2018-11-10T23:47:17.595Z,97350.17
2018-11-10T23:49:48.169Z,97357.12
2018-11-10T23:52:18.572Z,97350.14
2018-11-10T23:54:48.836Z,97360.52
2018-11-10T23:57:19.555Z,97350.03
2018-11-10T23:59:50.137Z,97347.81
